createdAt,value
2022-07-25T00:01:16.050Z,44.30
2022-07-25T00:03:47.097Z,28.67
2022-07-25T00:06:17.956Z,28.63
2022-07-25T00:08:44.868Z,22.03
2022-07-25T00:11:11.530Z,25.53
2022-07-25T00:13:40.295Z,29.03
2022-07-25T00:16:07.103Z,24.37
2022-07-25T00:18:33.892Z,16.00
2022-07-25T00:21:00.617Z,19.93
2022-07-25T00:23:27.270Z,19.10
2022-07-25T00:25:54.045Z,26.83
2022-07-25T00:28:20.822Z,27.97
2022-07-25T00:30:48.052Z,31.87
2022-07-25T00:33:14.812Z,37.90
2022-07-25T00:35:41.519Z,25.83
2022-07-25T00:38:08.229Z,35.33
2022-07-25T00:40:35.400Z,21.10
2022-07-25T00:43:02.120Z,23.40
2022-07-25T00:45:28.839Z,20.53
2022-07-25T00:47:55.495Z,30.03
2022-07-25T00:50:22.181Z,21.53
2022-07-25T00:52:49.094Z,30.20
2022-07-25T00:55:15.849Z,25.27
2022-07-25T00:57:42.596Z,30.23
2022-07-25T01:00:12.271Z,18.37
2022-07-25T01:02:38.985Z,22.23
2022-07-25T01:05:06.090Z,27.00
2022-07-25T01:07:32.808Z,20.90
2022-07-25T01:10:00.138Z,18.80
2022-07-25T01:12:27.024Z,20.70
2022-07-25T01:14:53.694Z,21.47
2022-07-25T01:17:20.333Z,30.90
2022-07-25T01:19:47.338Z,20.40
2022-07-25T01:22:14.019Z,34.60
2022-07-25T01:24:40.881Z,18.00
2022-07-25T01:27:07.555Z,21.60
2022-07-25T01:29:34.296Z,24.40
2022-07-25T01:32:02.845Z,33.63
2022-07-25T01:34:29.500Z,18.40
2022-07-25T01:36:56.169Z,20.30
2022-07-25T01:39:22.880Z,17.93
2022-07-25T01:41:49.755Z,26.60
2022-07-25T01:44:17.393Z,17.13
2022-07-25T01:46:44.203Z,26.47
2022-07-25T01:49:11.073Z,23.40
2022-07-25T01:51:37.905Z,22.57
2022-07-25T01:54:08.953Z,22.97
2022-07-25T01:56:37.217Z,25.43
2022-07-25T01:59:03.905Z,26.03
2022-07-25T02:01:30.646Z,19.63
2022-07-25T02:03:57.358Z,20.57
2022-07-25T02:06:24.018Z,22.13
2022-07-25T02:08:50.710Z,19.37
2022-07-25T02:11:17.409Z,26.07
2022-07-25T02:13:44.680Z,22.83
2022-07-25T02:16:11.513Z,25.77
2022-07-25T02:18:43.728Z,19.80
2022-07-25T02:21:14.453Z,18.60
2022-07-25T02:23:41.837Z,21.10
2022-07-25T02:26:08.473Z,20.50
2022-07-25T02:28:35.187Z,20.43
2022-07-25T02:31:01.920Z,25.30
2022-07-25T02:33:28.840Z,18.80
2022-07-25T02:35:55.567Z,23.73
2022-07-25T02:38:22.272Z,17.33
2022-07-25T02:40:54.728Z,18.20
2022-07-25T02:43:22.865Z,20.60
2022-07-25T02:45:49.598Z,30.57
2022-07-25T02:48:16.390Z,23.10
2022-07-25T02:50:43.057Z,25.47
2022-07-25T02:53:09.722Z,24.07
2022-07-25T02:55:36.380Z,22.27
2022-07-25T02:58:03.121Z,23.60
2022-07-25T03:00:30.437Z,25.10
2022-07-25T03:02:57.348Z,26.10
2022-07-25T03:05:24.132Z,20.83
2022-07-25T03:07:50.765Z,24.40
2022-07-25T03:10:17.474Z,24.90
2022-07-25T03:12:44.731Z,63.13
2022-07-25T03:15:11.971Z,24.17
2022-07-25T03:17:38.782Z,22.10
2022-07-25T03:20:06.971Z,27.60
2022-07-25T03:22:33.629Z,28.33
2022-07-25T03:25:00.233Z,27.00
2022-07-25T03:27:26.918Z,19.53
2022-07-25T03:29:54.646Z,20.77
2022-07-25T03:32:21.328Z,21.97
2022-07-25T03:34:47.993Z,30.27
2022-07-25T03:37:14.733Z,22.73
2022-07-25T03:39:41.408Z,29.00
2022-07-25T03:42:08.090Z,23.40
2022-07-25T03:44:34.885Z,20.93
2022-07-25T03:47:01.491Z,22.57
2022-07-25T03:49:28.124Z,24.90
2022-07-25T03:51:54.753Z,25.43
2022-07-25T03:54:21.436Z,22.47
2022-07-25T03:56:48.957Z,25.60
2022-07-25T03:59:17.370Z,20.83
2022-07-25T04:01:44.972Z,27.47
2022-07-25T04:04:11.720Z,22.90
2022-07-25T04:06:38.939Z,25.60
2022-07-25T04:09:06.155Z,21.30
2022-07-25T04:11:32.896Z,22.40
2022-07-25T04:13:59.551Z,26.07
2022-07-25T04:16:27.810Z,19.10
2022-07-25T04:18:54.750Z,19.33
2022-07-25T04:21:22.921Z,21.03
2022-07-25T04:23:49.765Z,15.57
2022-07-25T04:26:17.038Z,20.70
2022-07-25T04:28:43.713Z,19.63
2022-07-25T04:31:10.384Z,21.70
2022-07-25T04:33:37.777Z,20.13
2022-07-25T04:36:04.789Z,20.27
2022-07-25T04:38:31.853Z,17.20
2022-07-25T04:40:58.562Z,17.47
2022-07-25T04:43:25.315Z,22.63
2022-07-25T04:45:52.396Z,20.30
2022-07-25T04:48:19.444Z,23.40
2022-07-25T04:50:46.182Z,15.90
2022-07-25T04:53:12.899Z,19.13
2022-07-25T04:55:40.779Z,17.13
2022-07-25T04:58:07.414Z,24.23
2022-07-25T05:00:34.304Z,15.67
2022-07-25T05:03:00.971Z,16.83
2022-07-25T05:05:28.030Z,15.83
2022-07-25T05:07:58.496Z,14.73
2022-07-25T05:10:25.973Z,20.10
2022-07-25T05:12:52.651Z,17.87
2022-07-25T05:15:19.603Z,11.80
2022-07-25T05:17:46.647Z,12.20
2022-07-25T05:20:13.463Z,11.73
2022-07-25T05:22:40.292Z,14.03
2022-07-25T05:25:07.668Z,11.80
2022-07-25T05:27:34.342Z,12.40
2022-07-25T05:30:01.060Z,9.50
2022-07-25T05:32:27.768Z,22.90
2022-07-25T05:34:54.455Z,12.80
2022-07-25T05:37:21.209Z,11.40
2022-07-25T05:39:48.340Z,10.53
2022-07-25T05:42:15.002Z,12.13
2022-07-25T05:44:41.722Z,15.80
2022-07-25T05:47:09.566Z,9.23
2022-07-25T05:49:36.511Z,8.67
2022-07-25T05:52:03.566Z,10.50
2022-07-25T05:54:37.804Z,9.57
2022-07-25T05:57:04.490Z,10.07
2022-07-25T05:59:31.194Z,9.63
2022-07-25T06:01:57.997Z,15.73
2022-07-25T06:04:27.281Z,18.33
2022-07-25T06:07:40.607Z,11.67
2022-07-25T06:10:28.976Z,11.20
2022-07-25T06:12:59.658Z,11.63
2022-07-25T06:15:27.568Z,20.90
2022-07-25T06:17:54.858Z,8.77
2022-07-25T06:20:21.953Z,10.00
2022-07-25T06:22:49.283Z,9.03
2022-07-25T06:25:16.578Z,8.67
2022-07-25T06:27:43.603Z,9.33
2022-07-25T06:30:20.257Z,10.13
2022-07-25T06:34:25.774Z,8.80
2022-07-25T06:36:55.637Z,9.70
2022-07-25T06:39:22.517Z,8.50
2022-07-25T06:41:49.561Z,9.70
2022-07-25T06:44:17.939Z,11.47
2022-07-25T06:46:46.255Z,8.13
2022-07-25T06:49:13.669Z,8.77
2022-07-25T06:51:40.553Z,11.63
2022-07-25T06:54:07.784Z,17.00
2022-07-25T06:56:34.777Z,7.63
2022-07-25T06:59:01.478Z,9.83
2022-07-25T07:01:29.227Z,12.53
2022-07-25T07:03:56.110Z,11.80
2022-07-25T07:06:22.831Z,11.03
2022-07-25T07:08:52.039Z,10.07
2022-07-25T07:11:19.066Z,8.20
2022-07-25T07:13:46.080Z,8.60
2022-07-25T07:16:12.985Z,13.70
2022-07-25T07:18:39.718Z,10.03
2022-07-25T07:21:06.723Z,8.30
2022-07-25T07:23:34.530Z,11.60
2022-07-25T07:26:03.400Z,8.17
2022-07-25T07:28:30.121Z,13.83
2022-07-25T07:31:15.908Z,10.33
2022-07-25T07:33:43.489Z,17.10
2022-07-25T07:36:13.135Z,7.40
2022-07-25T07:38:40.209Z,11.30
2022-07-25T07:41:07.629Z,9.40
2022-07-25T07:43:34.817Z,7.63
2022-07-25T07:46:01.993Z,7.80
2022-07-25T07:48:29.837Z,12.10
2022-07-25T07:50:57.039Z,10.73
2022-07-25T07:53:43.750Z,9.73
2022-07-25T07:56:10.542Z,7.40
2022-07-25T07:58:37.299Z,7.60
2022-07-25T08:01:04.494Z,9.47
2022-07-25T08:03:31.629Z,8.90
2022-07-25T08:05:58.606Z,11.30
2022-07-25T08:08:30.635Z,10.10
2022-07-25T08:11:00.289Z,10.40
2022-07-25T08:13:28.644Z,12.43
2022-07-25T08:15:58.496Z,7.70
2022-07-25T08:18:26.312Z,8.70
2022-07-25T08:20:53.575Z,21.77
2022-07-25T08:26:10.549Z,11.13
2022-07-25T08:29:29.457Z,9.00
2022-07-25T08:31:56.197Z,11.40
2022-07-25T08:34:22.889Z,10.13
2022-07-25T08:36:49.796Z,11.97
2022-07-25T08:39:16.574Z,8.37
2022-07-25T08:41:43.321Z,9.73
2022-07-25T08:44:10.946Z,12.10
2022-07-25T08:46:40.578Z,7.43
2022-07-25T08:49:09.438Z,12.00
2022-07-25T08:51:38.718Z,5.73
2022-07-25T08:54:06.058Z,6.40
2022-07-25T08:56:34.255Z,5.80
2022-07-25T08:59:01.387Z,9.80
2022-07-25T09:01:34.582Z,5.87
2022-07-25T09:04:03.050Z,7.60
2022-07-25T09:06:30.243Z,5.40
2022-07-25T09:09:00.796Z,6.37
2022-07-25T09:11:29.143Z,7.00
2022-07-25T09:14:05.095Z,9.13
2022-07-25T09:16:34.124Z,8.23
2022-07-25T09:19:12.076Z,7.10
2022-07-25T09:21:42.263Z,8.20
2022-07-25T09:24:18.601Z,5.77
2022-07-25T09:26:55.677Z,6.67
2022-07-25T09:29:23.668Z,5.97
2022-07-25T09:31:51.379Z,8.10
2022-07-25T09:34:30.076Z,5.60
2022-07-25T09:36:57.006Z,3.93
2022-07-25T09:39:52.239Z,4.73
2022-07-25T09:46:35.248Z,10.93
2022-07-25T09:49:05.506Z,6.03
2022-07-25T09:55:11.731Z,7.00
2022-07-25T09:57:42.589Z,6.93
2022-07-25T10:00:09.979Z,6.33
2022-07-25T10:02:41.386Z,5.93
2022-07-25T10:05:11.870Z,6.60
2022-07-25T10:07:40.398Z,4.30
2022-07-25T10:10:27.139Z,23.43
2022-07-25T10:13:10.233Z,5.03
2022-07-25T10:15:49.728Z,9.50
2022-07-25T10:18:23.854Z,5.03
2022-07-25T10:20:52.033Z,5.97
2022-07-25T10:23:18.891Z,3.80
2022-07-25T10:26:04.581Z,7.27
2022-07-25T10:28:39.192Z,2.40
2022-07-25T10:31:16.455Z,5.40
2022-07-25T10:33:43.516Z,4.60
2022-07-25T10:36:11.557Z,3.30
2022-07-25T10:38:40.177Z,7.80
2022-07-25T10:41:09.245Z,11.83
2022-07-25T10:43:43.611Z,5.40
2022-07-25T10:46:18.589Z,5.10
2022-07-25T10:48:45.607Z,8.43
2022-07-25T10:51:18.040Z,4.13
2022-07-25T10:53:48.904Z,8.70
2022-07-25T10:56:23.577Z,6.50
2022-07-25T10:58:54.494Z,8.17
2022-07-25T11:01:21.454Z,3.23
2022-07-25T11:03:54.471Z,18.93
2022-07-25T11:07:10.109Z,3.33
2022-07-25T11:10:13.858Z,4.00
2022-07-25T11:12:46.614Z,4.93
2022-07-25T11:15:17.212Z,6.90
2022-07-25T11:18:14.939Z,4.07
2022-07-25T11:20:46.668Z,3.50
2022-07-25T11:23:22.122Z,4.40
2022-07-25T11:25:50.603Z,9.93
2022-07-25T11:28:17.650Z,5.40
2022-07-25T11:30:44.641Z,2.50
2022-07-25T11:33:20.644Z,8.90
2022-07-25T11:35:50.064Z,5.27
2022-07-25T11:38:25.260Z,4.90
2022-07-25T11:40:53.486Z,7.50
2022-07-25T11:43:21.257Z,4.50
2022-07-25T11:46:08.495Z,4.00
2022-07-25T11:48:56.748Z,5.03
2022-07-25T11:52:22.031Z,3.50
2022-07-25T11:54:57.036Z,7.17
2022-07-25T11:57:29.167Z,8.13
2022-07-25T12:04:28.085Z,6.50
2022-07-25T12:10:05.377Z,5.73
2022-07-25T12:12:46.039Z,11.40
2022-07-25T12:15:16.262Z,7.77
2022-07-25T12:17:43.914Z,6.17
2022-07-25T12:20:15.295Z,9.47
2022-07-25T12:22:42.350Z,9.87
2022-07-25T12:25:09.883Z,11.70
2022-07-25T12:27:39.859Z,2.67
2022-07-25T12:30:07.421Z,11.60
2022-07-25T12:32:35.652Z,2.47
2022-07-25T12:35:03.624Z,2.50
2022-07-25T12:37:30.588Z,2.00
2022-07-25T12:39:58.673Z,3.87
2022-07-25T12:42:28.746Z,7.10
2022-07-25T12:44:56.138Z,2.70
2022-07-25T12:47:23.394Z,2.80
2022-07-25T12:49:50.437Z,3.10
2022-07-25T12:52:17.361Z,5.97
2022-07-25T12:54:45.576Z,2.63
2022-07-25T12:57:13.568Z,3.13
2022-07-25T12:59:40.673Z,5.53
2022-07-25T13:02:08.686Z,4.77
2022-07-25T13:04:37.131Z,7.00
2022-07-25T13:07:04.527Z,3.77
2022-07-25T13:09:31.534Z,4.37
2022-07-25T13:11:58.529Z,7.70
2022-07-25T13:14:25.543Z,4.47
2022-07-25T13:16:57.143Z,4.40
2022-07-25T13:19:24.058Z,8.00
2022-07-25T13:21:50.900Z,2.37
2022-07-25T13:24:17.707Z,2.37
2022-07-25T13:26:44.750Z,2.77
2022-07-25T13:29:12.429Z,3.27
2022-07-25T13:31:41.058Z,4.77
2022-07-25T13:34:09.018Z,6.73
2022-07-25T13:36:36.846Z,4.43
2022-07-25T13:39:04.925Z,6.97
2022-07-25T13:41:32.301Z,6.23
2022-07-25T13:43:59.350Z,4.73
2022-07-25T13:46:26.339Z,4.20
2022-07-25T13:48:53.156Z,7.00
2022-07-25T13:51:19.956Z,6.83
2022-07-25T13:53:46.905Z,4.10
2022-07-25T13:56:13.838Z,3.10
2022-07-25T13:58:41.036Z,3.53
2022-07-25T14:01:08.761Z,11.20
2022-07-25T14:03:37.072Z,2.80
2022-07-25T14:06:04.402Z,4.53
2022-07-25T14:08:31.277Z,4.40
2022-07-25T14:11:00.264Z,3.90
2022-07-25T14:13:27.057Z,10.30
2022-07-25T14:15:53.936Z,4.77
2022-07-25T14:18:24.144Z,11.70
2022-07-25T14:20:51.034Z,16.23
2022-07-25T14:23:17.963Z,10.13
2022-07-25T14:25:47.621Z,9.77
2022-07-25T14:28:41.363Z,5.50
2022-07-25T14:34:40.243Z,10.73
2022-07-25T14:37:10.427Z,5.70
2022-07-25T14:39:40.617Z,7.67
2022-07-25T14:42:22.182Z,7.40
2022-07-25T14:44:51.310Z,4.07
2022-07-25T14:47:18.503Z,3.00
2022-07-25T14:49:45.581Z,7.27
2022-07-25T14:52:39.377Z,9.70
2022-07-25T14:55:09.511Z,2.47
2022-07-25T14:57:39.102Z,2.10
2022-07-25T15:00:17.420Z,4.30
2022-07-25T15:02:50.413Z,4.23
2022-07-25T15:05:18.083Z,3.87
2022-07-25T15:07:57.009Z,4.70
2022-07-25T15:10:34.804Z,4.70
2022-07-25T15:16:00.813Z,5.87
2022-07-25T15:18:28.027Z,4.17
2022-07-25T15:21:10.193Z,3.73
2022-07-25T15:23:37.412Z,2.63
2022-07-25T15:26:08.749Z,7.00
2022-07-25T15:28:37.222Z,2.67
2022-07-25T15:31:08.604Z,8.63
2022-07-25T15:33:35.936Z,5.57
2022-07-25T15:36:02.970Z,11.27
2022-07-25T15:38:30.852Z,10.00
2022-07-25T15:40:58.499Z,4.20
2022-07-25T15:43:25.749Z,3.13
2022-07-25T15:45:55.886Z,3.60
2022-07-25T15:48:23.689Z,3.87
2022-07-25T15:50:53.838Z,5.63
2022-07-25T15:53:20.770Z,6.70
2022-07-25T15:55:47.595Z,5.10
2022-07-25T15:58:15.017Z,8.23
2022-07-25T16:00:41.865Z,5.00
2022-07-25T16:03:09.084Z,6.30
2022-07-25T16:05:37.056Z,5.73
2022-07-25T16:08:03.908Z,3.53
2022-07-25T16:10:31.984Z,4.10
2022-07-25T16:12:58.956Z,8.60
2022-07-25T16:15:26.417Z,4.70
2022-07-25T16:17:53.773Z,5.37
2022-07-25T16:20:21.435Z,4.30
2022-07-25T16:22:49.084Z,7.90
2022-07-25T16:25:16.040Z,6.30
2022-07-25T16:27:43.056Z,23.50
2022-07-25T16:30:09.998Z,11.47
2022-07-25T16:32:36.677Z,11.83
2022-07-25T16:35:03.511Z,10.70
2022-07-25T16:37:30.205Z,88.20
2022-07-25T16:39:56.914Z,36.00
2022-07-25T16:42:23.657Z,10.30
2022-07-25T16:44:50.372Z,22.27
2022-07-25T16:47:17.094Z,15.37
2022-07-25T16:49:43.995Z,51.67
2022-07-25T16:52:10.702Z,40.07
2022-07-25T16:54:38.542Z,22.50
2022-07-25T16:57:05.920Z,30.87
2022-07-25T16:59:32.558Z,22.00
2022-07-25T17:01:59.352Z,92.43
2022-07-25T17:04:26.295Z,15.30
2022-07-25T17:06:53.366Z,24.60
2022-07-25T17:09:20.139Z,9.17
2022-07-25T17:11:47.016Z,10.97
2022-07-25T17:14:14.146Z,21.37
2022-07-25T17:16:41.509Z,6.23
2022-07-25T17:19:08.796Z,6.57
2022-07-25T17:21:36.213Z,4.10
2022-07-25T17:24:03.226Z,3.43
2022-07-25T17:26:30.551Z,4.40
2022-07-25T17:29:10.758Z,6.17
2022-07-25T17:31:40.638Z,8.27
2022-07-25T17:34:07.642Z,5.63
2022-07-25T17:36:34.478Z,4.37
2022-07-25T17:39:01.345Z,2.90
2022-07-25T17:41:28.586Z,3.23
2022-07-25T17:43:59.360Z,3.90
2022-07-25T17:46:26.651Z,2.93
2022-07-25T17:48:53.685Z,5.13
2022-07-25T17:51:20.703Z,6.10
2022-07-25T17:53:47.528Z,7.80
2022-07-25T17:56:14.279Z,6.57
2022-07-25T17:58:41.221Z,6.77
2022-07-25T18:01:10.514Z,11.93
2022-07-25T18:03:37.865Z,9.80
2022-07-25T18:06:05.107Z,11.30
2022-07-25T18:08:35.477Z,5.03
2022-07-25T18:11:07.636Z,11.53
2022-07-25T18:13:35.123Z,5.90
2022-07-25T18:16:02.650Z,8.60
2022-07-25T18:18:34.439Z,3.77
2022-07-25T18:21:01.760Z,4.33
2022-07-25T18:23:35.047Z,6.20
2022-07-25T18:26:02.185Z,8.10
2022-07-25T18:28:29.482Z,10.97
2022-07-25T18:30:56.752Z,4.17
2022-07-25T18:33:23.733Z,13.93
2022-07-25T18:35:51.512Z,3.53
2022-07-25T18:38:18.708Z,6.97
2022-07-25T18:40:46.234Z,2.20
2022-07-25T18:43:15.371Z,3.53
2022-07-25T18:45:42.931Z,6.80
2022-07-25T18:48:10.059Z,9.90
2022-07-25T18:50:36.905Z,4.07
2022-07-25T18:53:03.717Z,9.27
2022-07-25T18:55:30.531Z,7.13
2022-07-25T18:57:57.338Z,5.47
2022-07-25T19:00:24.159Z,8.50
2022-07-25T19:02:50.951Z,8.70
2022-07-25T19:05:18.108Z,3.57
2022-07-25T19:07:45.555Z,5.40
2022-07-25T19:10:12.786Z,3.03
2022-07-25T19:12:40.146Z,5.57
2022-07-25T19:15:07.439Z,3.30
2022-07-25T19:17:34.774Z,2.20
2022-07-25T19:20:05.074Z,3.10
2022-07-25T19:22:38.421Z,5.33
2022-07-25T19:25:15.144Z,10.53
2022-07-25T19:27:42.304Z,2.10
2022-07-25T19:30:13.897Z,7.07
2022-07-25T19:32:44.192Z,7.80
2022-07-25T19:35:11.765Z,2.70
2022-07-25T19:37:38.515Z,1.83
2022-07-25T19:40:06.480Z,3.70
2022-07-25T19:42:36.598Z,8.60
2022-07-25T19:45:03.915Z,4.43
2022-07-25T19:47:30.645Z,2.83
2022-07-25T19:49:57.518Z,5.27
2022-07-25T19:52:24.224Z,6.97
2022-07-25T19:54:51.051Z,3.57
2022-07-25T19:57:17.723Z,4.50
2022-07-25T19:59:44.634Z,5.80
2022-07-25T20:02:12.179Z,2.03
2022-07-25T20:04:38.997Z,4.33
2022-07-25T20:07:05.864Z,3.47
2022-07-25T20:09:33.712Z,1.63
2022-07-25T20:12:01.492Z,3.73
2022-07-25T20:14:28.641Z,2.63
2022-07-25T20:16:55.853Z,8.07
2022-07-25T20:19:23.770Z,6.43
2022-07-25T20:21:50.527Z,2.50
2022-07-25T20:24:21.251Z,5.43
2022-07-25T20:26:48.846Z,5.40
2022-07-25T20:29:15.580Z,5.03
2022-07-25T20:31:45.122Z,2.57
2022-07-25T20:34:12.414Z,9.53
2022-07-25T20:36:39.412Z,3.43
2022-07-25T20:39:08.741Z,2.40
2022-07-25T20:41:38.897Z,4.30
2022-07-25T20:44:05.858Z,1.73
2022-07-25T20:46:35.994Z,6.57
2022-07-25T20:49:04.194Z,2.33
2022-07-25T20:51:31.274Z,3.67
2022-07-25T20:53:58.221Z,4.90
2022-07-25T20:56:25.260Z,6.10
2022-07-25T20:58:52.167Z,3.47
2022-07-25T21:01:20.290Z,4.33
2022-07-25T21:03:47.258Z,2.07
2022-07-25T21:06:14.100Z,2.30
2022-07-25T21:08:41.172Z,5.67
2022-07-25T21:11:08.306Z,1.90
2022-07-25T21:13:35.498Z,1.47
2022-07-25T21:16:05.719Z,7.23
2022-07-25T21:18:32.521Z,9.10
2022-07-25T21:20:59.468Z,4.03
2022-07-25T21:23:26.521Z,5.00
2022-07-25T21:25:53.468Z,2.80
2022-07-25T21:28:20.306Z,1.50
2022-07-25T21:30:47.166Z,1.57
2022-07-25T21:33:14.873Z,6.13
2022-07-25T21:35:49.165Z,2.90
2022-07-25T21:38:26.977Z,2.80
2022-07-25T21:40:54.888Z,3.23
2022-07-25T21:43:21.622Z,2.67
2022-07-25T21:45:48.776Z,6.60
2022-07-25T21:48:15.749Z,7.63
2022-07-25T21:50:49.331Z,12.87
2022-07-25T21:53:17.516Z,6.37
2022-07-25T21:58:35.140Z,3.17
2022-07-25T22:01:02.173Z,0.90
2022-07-25T22:03:29.087Z,2.83
2022-07-25T22:05:57.003Z,10.90
2022-07-25T22:08:23.666Z,5.07
2022-07-25T22:10:50.288Z,4.27
2022-07-25T22:13:16.938Z,1.40
2022-07-25T22:15:44.395Z,1.00
2022-07-25T22:18:11.261Z,3.37
2022-07-25T22:20:37.960Z,4.80
2022-07-25T22:23:04.864Z,3.63
2022-07-25T22:25:31.753Z,1.80
2022-07-25T22:27:58.582Z,4.93
2022-07-25T22:30:25.411Z,4.87
2022-07-25T22:32:52.508Z,8.63
2022-07-25T22:35:19.225Z,5.90
2022-07-25T22:37:46.097Z,5.07
2022-07-25T22:40:13.034Z,9.90
2022-07-25T22:42:39.720Z,8.50
2022-07-25T22:45:06.850Z,2.30
2022-07-25T22:47:33.530Z,3.23
2022-07-25T22:50:00.218Z,9.07
2022-07-25T22:52:26.950Z,3.07
2022-07-25T22:54:53.645Z,3.40
2022-07-25T22:57:20.336Z,1.63
2022-07-25T22:59:49.293Z,3.93
2022-07-25T23:02:16.077Z,4.13
2022-07-25T23:04:42.821Z,4.30
2022-07-25T23:07:09.495Z,7.13
2022-07-25T23:09:36.526Z,3.63
2022-07-25T23:12:04.175Z,3.67
2022-07-25T23:14:30.816Z,4.40
2022-07-25T23:17:19.850Z,3.00
2022-07-25T23:19:50.874Z,2.70
2022-07-25T23:22:18.452Z,3.20
2022-07-25T23:24:45.165Z,4.20
2022-07-25T23:27:11.977Z,8.00
2022-07-25T23:29:38.711Z,1.40
2022-07-25T23:32:05.678Z,2.53
2022-07-25T23:34:32.450Z,36.67
2022-07-25T23:37:02.553Z,8.60
2022-07-25T23:39:29.402Z,3.40
2022-07-25T23:41:56.006Z,2.63
2022-07-25T23:44:22.651Z,10.53
2022-07-25T23:46:50.889Z,4.57
2022-07-25T23:49:17.656Z,3.83
2022-07-25T23:51:44.395Z,7.43
2022-07-25T23:54:11.065Z,9.60
2022-07-25T23:57:08.369Z,5.77
2022-07-25T23:59:35.561Z,5.70
